sensor_id;sensor_type;location;lat;lon;timestamp;pressure;altitude;pressure_sealevel;temperature;humidity
36964;BME280;22878;48.616;35.326;2022-07-29T00:02:17;101190.92;;;20.92;100.00
36964;BME280;22878;48.616;35.326;2022-07-29T00:04:43;101188.75;;;20.92;100.00
36964;BME280;22878;48.616;35.326;2022-07-29T00:07:10;101190.66;;;20.91;100.00
36964;BME280;22878;48.616;35.326;2022-07-29T00:09:36;101195.66;;;20.89;100.00
36964;BME280;22878;48.616;35.326;2022-07-29T00:12:02;101196.23;;;20.89;100.00
36964;BME280;22878;48.616;35.326;2022-07-29T00:14:29;101196.30;;;20.86;100.00
36964;BME280;22878;48.616;35.326;2022-07-29T00:16:55;101200.41;;;20.86;100.00
36964;BME280;22878;48.616;35.326;2022-07-29T00:19:21;101201.84;;;20.83;100.00
36964;BME280;22878;48.616;35.326;2022-07-29T00:21:47;101200.23;;;20.82;100.00
36964;BME280;22878;48.616;35.326;2022-07-29T00:24:13;101200.47;;;20.83;100.00
36964;BME280;22878;48.616;35.326;2022-07-29T00:26:40;101200.77;;;20.82;100.00
36964;BME280;22878;48.616;35.326;2022-07-29T00:29:06;101199.73;;;20.80;100.00
36964;BME280;22878;48.616;35.326;2022-07-29T00:31:32;101203.72;;;20.74;100.00
36964;BME280;22878;48.616;35.326;2022-07-29T00:33:58;101205.66;;;20.74;100.00
36964;BME280;22878;48.616;35.326;2022-07-29T00:36:24;101200.81;;;20.71;100.00
36964;BME280;22878;48.616;35.326;2022-07-29T00:38:51;101205.78;;;20.69;100.00
36964;BME280;22878;48.616;35.326;2022-07-29T00:41:17;101205.04;;;20.66;100.00
36964;BME280;22878;48.616;35.326;2022-07-29T00:43:44;101198.31;;;20.60;100.00
36964;BME280;22878;48.616;35.326;2022-07-29T00:46:11;101203.28;;;20.58;100.00
36964;BME280;22878;48.616;35.326;2022-07-29T00:48:37;101206.98;;;20.54;100.00
36964;BME280;22878;48.616;35.326;2022-07-29T00:51:05;101212.75;;;20.52;100.00
36964;BME280;22878;48.616;35.326;2022-07-29T00:53:33;101212.75;;;20.52;100.00
36964;BME280;22878;48.616;35.326;2022-07-29T00:56:00;101209.50;;;20.50;100.00
36964;BME280;22878;48.616;35.326;2022-07-29T00:58:26;101213.11;;;20.48;100.00
36964;BME280;22878;48.616;35.326;2022-07-29T01:00:52;101220.25;;;20.47;100.00
36964;BME280;22878;48.616;35.326;2022-07-29T01:03:18;101214.65;;;20.40;100.00
36964;BME280;22878;48.616;35.326;2022-07-29T01:05:45;101218.12;;;20.32;100.00
36964;BME280;22878;48.616;35.326;2022-07-29T01:08:12;101223.85;;;20.22;100.00
36964;BME280;22878;48.616;35.326;2022-07-29T01:10:41;101227.02;;;20.15;100.00
36964;BME280;22878;48.616;35.326;2022-07-29T01:13:09;101226.14;;;20.06;100.00
36964;BME280;22878;48.616;35.326;2022-07-29T01:15:44;101227.05;;;20.02;100.00
36964;BME280;22878;48.616;35.326;2022-07-29T01:18:22;101232.39;;;19.95;100.00
36964;BME280;22878;48.616;35.326;2022-07-29T01:29:58;101222.45;;;19.74;100.00
36964;BME280;22878;48.616;35.326;2022-07-29T01:32:31;101222.12;;;19.76;100.00
36964;BME280;22878;48.616;35.326;2022-07-29T01:37:48;101220.33;;;19.71;100.00
36964;BME280;22878;48.616;35.326;2022-07-29T01:40:25;101226.46;;;19.66;100.00
36964;BME280;22878;48.616;35.326;2022-07-29T01:42:58;101223.04;;;19.58;100.00
36964;BME280;22878;48.616;35.326;2022-07-29T01:45:40;101221.28;;;19.50;100.00
36964;BME280;22878;48.616;35.326;2022-07-29T01:48:21;101218.94;;;19.44;100.00
36964;BME280;22878;48.616;35.326;2022-07-29T01:50:52;101222.59;;;19.39;100.00
36964;BME280;22878;48.616;35.326;2022-07-29T01:56:00;101231.81;;;19.29;100.00
36964;BME280;22878;48.616;35.326;2022-07-29T01:58:28;101227.48;;;19.26;100.00
36964;BME280;22878;48.616;35.326;2022-07-29T02:00:58;101226.48;;;19.22;100.00
36964;BME280;22878;48.616;35.326;2022-07-29T02:03:26;101224.92;;;19.18;100.00
36964;BME280;22878;48.616;35.326;2022-07-29T02:05:55;101235.89;;;19.16;100.00
36964;BME280;22878;48.616;35.326;2022-07-29T02:08:24;101231.31;;;19.11;100.00
36964;BME280;22878;48.616;35.326;2022-07-29T02:10:53;101232.53;;;19.05;100.00
36964;BME280;22878;48.616;35.326;2022-07-29T02:13:22;101234.81;;;19.00;100.00
36964;BME280;22878;48.616;35.326;2022-07-29T02:15:51;101226.34;;;18.99;100.00
36964;BME280;22878;48.616;35.326;2022-07-29T02:18:20;101232.92;;;18.98;100.00
36964;BME280;22878;48.616;35.326;2022-07-29T02:20:50;101228.59;;;18.97;100.00
36964;BME280;22878;48.616;35.326;2022-07-29T02:23:21;101227.50;;;18.96;100.00
36964;BME280;22878;48.616;35.326;2022-07-29T02:25:53;101234.09;;;18.95;100.00
36964;BME280;22878;48.616;35.326;2022-07-29T02:28:24;101232.45;;;18.94;100.00
36964;BME280;22878;48.616;35.326;2022-07-29T02:30:52;101235.50;;;18.92;100.00
36964;BME280;22878;48.616;35.326;2022-07-29T02:33:20;101236.59;;;18.91;100.00
36964;BME280;22878;48.616;35.326;2022-07-29T02:35:48;101235.50;;;18.92;100.00
36964;BME280;22878;48.616;35.326;2022-07-29T02:38:16;101232.45;;;18.94;100.00
36964;BME280;22878;48.616;35.326;2022-07-29T02:41:16;101237.06;;;18.96;100.00
36964;BME280;22878;48.616;35.326;2022-07-29T02:44:06;101229.95;;;18.97;100.00
36964;BME280;22878;48.616;35.326;2022-07-29T02:51:58;101230.59;;;19.05;100.00
36964;BME280;22878;48.616;35.326;2022-07-29T02:54:53;101222.63;;;19.09;100.00
36964;BME280;22878;48.616;35.326;2022-07-29T02:57:27;101234.77;;;19.17;100.00
36964;BME280;22878;48.616;35.326;2022-07-29T02:59:57;101235.40;;;19.27;100.00
36964;BME280;22878;48.616;35.326;2022-07-29T03:02:25;101238.48;;;19.37;100.00
36964;BME280;22878;48.616;35.326;2022-07-29T03:04:54;101242.64;;;19.48;100.00
36964;BME280;22878;48.616;35.326;2022-07-29T03:07:21;101243.73;;;19.61;100.00
36964;BME280;22878;48.616;35.326;2022-07-29T03:09:49;101245.42;;;19.73;100.00
36964;BME280;22878;48.616;35.326;2022-07-29T03:12:16;101256.69;;;19.86;100.00
36964;BME280;22878;48.616;35.326;2022-07-29T03:14:43;101253.28;;;19.91;100.00
36964;BME280;22878;48.616;35.326;2022-07-29T03:17:10;101258.95;;;19.95;100.00
36964;BME280;22878;48.616;35.326;2022-07-29T03:19:36;101258.28;;;20.01;100.00
36964;BME280;22878;48.616;35.326;2022-07-29T03:22:03;101262.60;;;20.15;100.00
36964;BME280;22878;48.616;35.326;2022-07-29T03:24:34;101258.70;;;20.30;100.00
36964;BME280;22878;48.616;35.326;2022-07-29T03:27:02;101263.30;;;20.57;100.00
36964;BME280;22878;48.616;35.326;2022-07-29T03:29:29;101259.03;;;20.96;100.00
36964;BME280;22878;48.616;35.326;2022-07-29T03:31:56;101250.83;;;21.39;100.00
36964;BME280;22878;48.616;35.326;2022-07-29T03:34:21;101256.41;;;21.82;100.00
36964;BME280;22878;48.616;35.326;2022-07-29T03:36:48;101256.02;;;22.32;100.00
36964;BME280;22878;48.616;35.326;2022-07-29T03:41:49;101256.71;;;23.20;100.00
36964;BME280;22878;48.616;35.326;2022-07-29T03:44:17;101257.67;;;23.47;100.00
36964;BME280;22878;48.616;35.326;2022-07-29T03:46:46;101260.30;;;23.65;100.00
36964;BME280;22878;48.616;35.326;2022-07-29T03:49:15;101254.45;;;23.90;100.00
36964;BME280;22878;48.616;35.326;2022-07-29T03:51:43;101255.50;;;24.48;100.00
36964;BME280;22878;48.616;35.326;2022-07-29T03:54:09;101260.34;;;25.30;100.00
36964;BME280;22878;48.616;35.326;2022-07-29T03:56:39;101253.14;;;26.09;100.00
36964;BME280;22878;48.616;35.326;2022-07-29T03:59:07;101258.20;;;26.59;100.00
36964;BME280;22878;48.616;35.326;2022-07-29T04:01:35;101257.61;;;27.04;100.00
36964;BME280;22878;48.616;35.326;2022-07-29T04:04:02;101258.63;;;27.53;100.00
36964;BME280;22878;48.616;35.326;2022-07-29T04:06:38;101261.56;;;28.11;100.00
36964;BME280;22878;48.616;35.326;2022-07-29T04:09:06;101258.39;;;28.58;100.00
36964;BME280;22878;48.616;35.326;2022-07-29T04:11:33;101265.16;;;28.70;98.58
36964;BME280;22878;48.616;35.326;2022-07-29T04:13:59;101263.39;;;28.81;94.51
36964;BME280;22878;48.616;35.326;2022-07-29T04:16:25;101261.62;;;28.92;90.69
36964;BME280;22878;48.616;35.326;2022-07-29T04:18:51;101261.38;;;28.91;86.62
36964;BME280;22878;48.616;35.326;2022-07-29T04:21:17;101268.05;;;29.06;85.33
36964;BME280;22878;48.616;35.326;2022-07-29T04:23:43;101271.23;;;29.31;84.11
36964;BME280;22878;48.616;35.326;2022-07-29T04:26:11;101276.20;;;29.81;82.08
36964;BME280;22878;48.616;35.326;2022-07-29T04:28:37;101270.05;;;30.39;77.48
36964;BME280;22878;48.616;35.326;2022-07-29T04:33:32;101260.66;;;30.88;72.83
36964;BME280;22878;48.616;35.326;2022-07-29T04:35:58;101267.37;;;31.24;71.34
36964;BME280;22878;48.616;35.326;2022-07-29T04:38:24;101270.81;;;31.55;66.77
36964;BME280;22878;48.616;35.326;2022-07-29T04:40:50;101266.00;;;31.04;62.88
36964;BME280;22878;48.616;35.326;2022-07-29T04:43:16;101271.61;;;30.73;62.75
36964;BME280;22878;48.616;35.326;2022-07-29T04:45:44;101273.60;;;30.73;63.09
36964;BME280;22878;48.616;35.326;2022-07-29T04:48:10;101271.88;;;30.95;63.00
36964;BME280;22878;48.616;35.326;2022-07-29T04:50:40;101262.34;;;31.40;61.56
36964;BME280;22878;48.616;35.326;2022-07-29T04:55:35;101267.30;;;31.37;57.89
36964;BME280;22878;48.616;35.326;2022-07-29T04:58:01;101267.48;;;31.62;56.98
36964;BME280;22878;48.616;35.326;2022-07-29T05:00:27;101266.27;;;31.91;56.32
36964;BME280;22878;48.616;35.326;2022-07-29T05:02:54;101273.14;;;32.08;55.16
36964;BME280;22878;48.616;35.326;2022-07-29T05:05:20;101276.55;;;32.15;54.82
36964;BME280;22878;48.616;35.326;2022-07-29T05:07:46;101266.15;;;32.46;53.87
36964;BME280;22878;48.616;35.326;2022-07-29T05:10:12;101272.80;;;32.66;52.29
36964;BME280;22878;48.616;35.326;2022-07-29T05:12:41;101273.48;;;33.01;52.21
36964;BME280;22878;48.616;35.326;2022-07-29T05:15:08;101269.48;;;33.38;49.84
36964;BME280;22878;48.616;35.326;2022-07-29T05:17:35;101272.67;;;33.15;49.61
36964;BME280;22878;48.616;35.326;2022-07-29T05:20:01;101272.69;;;33.58;49.60
36964;BME280;22878;48.616;35.326;2022-07-29T05:22:27;101270.58;;;34.08;46.88
36964;BME280;22878;48.616;35.326;2022-07-29T05:24:56;101278.81;;;33.89;46.95
36964;BME280;22878;48.616;35.326;2022-07-29T05:27:22;101268.97;;;34.18;46.47
36964;BME280;22878;48.616;35.326;2022-07-29T05:29:48;101277.50;;;34.26;45.45
36964;BME280;22878;48.616;35.326;2022-07-29T05:32:14;101281.98;;;34.50;45.38
36964;BME280;22878;48.616;35.326;2022-07-29T05:34:41;101280.38;;;34.59;44.40
36964;BME280;22878;48.616;35.326;2022-07-29T05:37:10;101277.00;;;34.56;43.06
36964;BME280;22878;48.616;35.326;2022-07-29T05:39:39;101277.19;;;34.10;44.29
36964;BME280;22878;48.616;35.326;2022-07-29T05:42:10;101275.39;;;34.55;44.33
36964;BME280;22878;48.616;35.326;2022-07-29T05:44:38;101278.06;;;35.03;44.19
36964;BME280;22878;48.616;35.326;2022-07-29T05:47:05;101278.48;;;35.31;42.42
36964;BME280;22878;48.616;35.326;2022-07-29T05:49:32;101281.22;;;35.80;42.61
36964;BME280;22878;48.616;35.326;2022-07-29T05:51:58;101268.17;;;36.00;40.79
36964;BME280;22878;48.616;35.326;2022-07-29T05:54:24;101282.30;;;35.52;40.27
36964;BME280;22878;48.616;35.326;2022-07-29T05:56:51;101282.30;;;35.52;40.27
36964;BME280;22878;48.616;35.326;2022-07-29T05:59:17;101278.70;;;35.51;40.71
36964;BME280;22878;48.616;35.326;2022-07-29T06:01:43;101278.90;;;35.75;40.55
36964;BME280;22878;48.616;35.326;2022-07-29T06:04:09;101274.69;;;36.28;39.05
36964;BME280;22878;48.616;35.326;2022-07-29T06:06:35;101269.64;;;36.15;38.30
36964;BME280;22878;48.616;35.326;2022-07-29T06:09:02;101272.49;;;36.27;38.82
36964;BME280;22878;48.616;35.326;2022-07-29T06:11:28;101273.72;;;36.57;38.06
36964;BME280;22878;48.616;35.326;2022-07-29T06:13:54;101274.01;;;37.05;36.53
36964;BME280;22878;48.616;35.326;2022-07-29T06:16:20;101271.81;;;36.47;35.96
36964;BME280;22878;48.616;35.326;2022-07-29T06:18:46;101271.45;;;36.29;36.08
36964;BME280;22878;48.616;35.326;2022-07-29T06:21:13;101267.20;;;36.33;36.40
36964;BME280;22878;48.616;35.326;2022-07-29T06:23:39;101266.72;;;36.07;36.35
36964;BME280;22878;48.616;35.326;2022-07-29T06:26:05;101261.80;;;35.81;36.91
36964;BME280;22878;48.616;35.326;2022-07-29T06:28:32;101270.62;;;35.98;36.29
36964;BME280;22878;48.616;35.326;2022-07-29T06:30:58;101272.28;;;36.11;36.79
36964;BME280;22878;48.616;35.326;2022-07-29T06:33:24;101265.98;;;36.19;35.82
36964;BME280;22878;48.616;35.326;2022-07-29T06:35:50;101264.94;;;36.21;35.63
36964;BME280;22878;48.616;35.326;2022-07-29T06:38:16;101272.81;;;35.99;35.56
36964;BME280;22878;48.616;35.326;2022-07-29T06:40:43;101269.78;;;36.01;35.67
36964;BME280;22878;48.616;35.326;2022-07-29T06:46:06;101271.93;;;36.24;34.78
36964;BME280;22878;48.616;35.326;2022-07-29T06:48:34;101275.14;;;36.38;34.32
36964;BME280;22878;48.616;35.326;2022-07-29T06:51:03;101264.76;;;36.20;34.81
36964;BME280;22878;48.616;35.326;2022-07-29T06:53:30;101265.97;;;36.49;34.90
36964;BME280;22878;48.616;35.326;2022-07-29T06:55:57;101261.43;;;37.13;34.37
36964;BME280;22878;48.616;35.326;2022-07-29T06:58:25;101261.17;;;37.63;33.21
36964;BME280;22878;48.616;35.326;2022-07-29T07:00:52;101260.80;;;37.37;32.65
36964;BME280;22878;48.616;35.326;2022-07-29T07:05:49;101267.86;;;38.21;31.84
36964;BME280;22878;48.616;35.326;2022-07-29T07:08:17;101264.45;;;38.21;30.13
36964;BME280;22878;48.616;35.326;2022-07-29T07:10:45;101262.48;;;38.18;31.53
36964;BME280;22878;48.616;35.326;2022-07-29T07:13:11;101260.26;;;38.82;30.65
36964;BME280;22878;48.616;35.326;2022-07-29T07:15:38;101263.80;;;39.35;30.38
36964;BME280;22878;48.616;35.326;2022-07-29T07:18:05;101253.45;;;39.53;30.05
36964;BME280;22878;48.616;35.326;2022-07-29T07:20:33;101252.80;;;40.33;28.84
36964;BME280;22878;48.616;35.326;2022-07-29T07:22:59;101246.61;;;40.17;27.81
36964;BME280;22878;48.616;35.326;2022-07-29T07:25:25;101248.86;;;39.88;27.54
36964;BME280;22878;48.616;35.326;2022-07-29T07:27:52;101250.89;;;39.88;27.50
36964;BME280;22878;48.616;35.326;2022-07-29T07:30:18;101258.84;;;39.47;27.48
36964;BME280;22878;48.616;35.326;2022-07-29T07:32:44;101253.78;;;39.10;27.29
36964;BME280;22878;48.616;35.326;2022-07-29T07:35:10;101262.98;;;38.69;27.85
36964;BME280;22878;48.616;35.326;2022-07-29T07:37:37;101266.72;;;38.91;27.51
36964;BME280;22878;48.616;35.326;2022-07-29T07:40:04;101266.77;;;38.79;27.51
36964;BME280;22878;48.616;35.326;2022-07-29T07:42:31;101262.23;;;39.01;27.86
36964;BME280;22878;48.616;35.326;2022-07-29T07:45:01;101256.77;;;39.27;27.11
36964;BME280;22878;48.616;35.326;2022-07-29T07:47:28;101256.41;;;39.17;26.92
36964;BME280;22878;48.616;35.326;2022-07-29T07:49:54;101257.19;;;39.25;27.22
36964;BME280;22878;48.616;35.326;2022-07-29T07:52:21;101258.53;;;39.04;26.77
36964;BME280;22878;48.616;35.326;2022-07-29T07:54:47;101264.00;;;38.95;27.00
36964;BME280;22878;48.616;35.326;2022-07-29T07:59:42;101261.97;;;39.37;26.30
36964;BME280;22878;48.616;35.326;2022-07-29T08:02:10;101260.02;;;39.09;26.02
36964;BME280;22878;48.616;35.326;2022-07-29T08:04:42;101260.73;;;38.97;26.37
36964;BME280;22878;48.616;35.326;2022-07-29T08:07:28;101267.44;;;38.87;26.97
36964;BME280;22878;48.616;35.326;2022-07-29T08:10:08;101256.48;;;39.46;26.67
36964;BME280;22878;48.616;35.326;2022-07-29T08:12:42;101252.92;;;39.87;26.48
36964;BME280;22878;48.616;35.326;2022-07-29T08:15:09;101254.63;;;40.52;25.70
36964;BME280;22878;48.616;35.326;2022-07-29T08:17:35;101255.53;;;40.49;25.04
36964;BME280;22878;48.616;35.326;2022-07-29T08:20:01;101247.50;;;40.22;25.56
36964;BME280;22878;48.616;35.326;2022-07-29T08:22:31;101256.17;;;40.61;25.12
36964;BME280;22878;48.616;35.326;2022-07-29T08:24:57;101254.75;;;40.36;24.31
36964;BME280;22878;48.616;35.326;2022-07-29T08:27:23;101254.13;;;39.36;24.82
36964;BME280;22878;48.616;35.326;2022-07-29T08:29:51;101258.59;;;38.84;25.51
36964;BME280;22878;48.616;35.326;2022-07-29T08:32:17;101258.05;;;38.73;26.06
36964;BME280;22878;48.616;35.326;2022-07-29T08:34:43;101254.37;;;39.09;26.26
36964;BME280;22878;48.616;35.326;2022-07-29T08:37:11;101254.93;;;39.04;26.29
36964;BME280;22878;48.616;35.326;2022-07-29T08:39:38;101256.77;;;39.19;25.87
36964;BME280;22878;48.616;35.326;2022-07-29T08:42:05;101258.59;;;38.84;26.03
36964;BME280;22878;48.616;35.326;2022-07-29T08:44:31;101252.38;;;39.10;25.59
36964;BME280;22878;48.616;35.326;2022-07-29T08:46:58;101260.11;;;39.14;25.11
36964;BME280;22878;48.616;35.326;2022-07-29T08:49:25;101264.00;;;39.36;25.81
36964;BME280;22878;48.616;35.326;2022-07-29T08:51:51;101260.17;;;39.51;24.81
36964;BME280;22878;48.616;35.326;2022-07-29T08:54:21;101261.08;;;39.40;24.87
36964;BME280;22878;48.616;35.326;2022-07-29T08:56:53;101255.17;;;39.71;25.36
36964;BME280;22878;48.616;35.326;2022-07-29T08:59:24;101255.61;;;39.70;24.46
36964;BME280;22878;48.616;35.326;2022-07-29T09:01:53;101257.64;;;39.32;24.76
36964;BME280;22878;48.616;35.326;2022-07-29T09:04:20;101257.02;;;39.24;25.13
36964;BME280;22878;48.616;35.326;2022-07-29T09:06:48;101255.84;;;39.55;25.39
36964;BME280;22878;48.616;35.326;2022-07-29T09:09:17;101256.30;;;39.28;24.57
36964;BME280;22878;48.616;35.326;2022-07-29T09:11:43;101254.56;;;39.02;25.34
36964;BME280;22878;48.616;35.326;2022-07-29T09:14:11;101252.08;;;39.28;25.28
36964;BME280;22878;48.616;35.326;2022-07-29T09:16:47;101255.26;;;39.14;24.13
36964;BME280;22878;48.616;35.326;2022-07-29T09:19:26;101249.18;;;39.32;25.05
36964;BME280;22878;48.616;35.326;2022-07-29T09:21:57;101251.45;;;39.54;24.56
36964;BME280;22878;48.616;35.326;2022-07-29T09:24:36;101247.28;;;39.87;24.50
36964;BME280;22878;48.616;35.326;2022-07-29T09:27:10;101250.99;;;40.26;24.39
36964;BME280;22878;48.616;35.326;2022-07-29T09:29:39;101256.12;;;39.73;24.16
36964;BME280;22878;48.616;35.326;2022-07-29T09:32:08;101255.86;;;40.05;24.72
36964;BME280;22878;48.616;35.326;2022-07-29T09:34:36;101253.89;;;40.10;23.33
36964;BME280;22878;48.616;35.326;2022-07-29T09:37:04;101261.18;;;38.87;24.09
36964;BME280;22878;48.616;35.326;2022-07-29T09:39:36;101252.69;;;38.62;24.37
36964;BME280;22878;48.616;35.326;2022-07-29T09:42:06;101253.83;;;38.09;24.94
36964;BME280;22878;48.616;35.326;2022-07-29T09:44:46;101256.06;;;38.17;24.87
36964;BME280;22878;48.616;35.326;2022-07-29T09:47:15;101248.31;;;38.42;24.13
36964;BME280;22878;48.616;35.326;2022-07-29T09:49:54;101246.44;;;38.35;24.69
36964;BME280;22878;48.616;35.326;2022-07-29T09:52:26;101249.16;;;37.90;25.58
36964;BME280;22878;48.616;35.326;2022-07-29T09:54:53;101241.06;;;37.53;25.67
36964;BME280;22878;48.616;35.326;2022-07-29T09:57:33;101239.55;;;36.86;26.26
36964;BME280;22878;48.616;35.326;2022-07-29T10:02:39;101240.41;;;35.56;27.70
36964;BME280;22878;48.616;35.326;2022-07-29T10:07:45;101232.95;;;35.61;28.64
36964;BME280;22878;48.616;35.326;2022-07-29T10:10:25;101239.33;;;35.43;28.54
36964;BME280;22878;48.616;35.326;2022-07-29T10:15:28;101242.39;;;35.14;29.53
36964;BME280;22878;48.616;35.326;2022-07-29T10:17:56;101223.73;;;35.19;29.64
36964;BME280;22878;48.616;35.326;2022-07-29T10:20:23;101245.59;;;35.39;29.34
36964;BME280;22878;48.616;35.326;2022-07-29T10:22:51;101239.48;;;34.99;29.21
36964;BME280;22878;48.616;35.326;2022-07-29T10:25:18;101243.08;;;34.36;29.80
36964;BME280;22878;48.616;35.326;2022-07-29T10:27:46;101247.72;;;33.66;30.91
36964;BME280;22878;48.616;35.326;2022-07-29T10:30:15;101247.11;;;33.66;31.40
36964;BME280;22878;48.616;35.326;2022-07-29T10:42:24;101235.84;;;34.43;30.80
36964;BME280;22878;48.616;35.326;2022-07-29T10:44:52;101240.36;;;34.63;30.41
36964;BME280;22878;48.616;35.326;2022-07-29T10:47:25;101231.27;;;34.74;30.26
36964;BME280;22878;48.616;35.326;2022-07-29T10:50:01;101234.11;;;34.33;30.71
36964;BME280;22878;48.616;35.326;2022-07-29T10:58:17;101245.03;;;34.06;31.22
36964;BME280;22878;48.616;35.326;2022-07-29T11:06:10;101232.81;;;34.49;31.18
36964;BME280;22878;48.616;35.326;2022-07-29T11:08:36;101230.37;;;34.18;31.10
36964;BME280;22878;48.616;35.326;2022-07-29T11:13:54;101226.27;;;33.92;31.56
36964;BME280;22878;48.616;35.326;2022-07-29T11:16:21;101227.95;;;33.51;31.72
36964;BME280;22878;48.616;35.326;2022-07-29T11:21:46;101236.56;;;33.19;32.01
36964;BME280;22878;48.616;35.326;2022-07-29T11:24:21;101230.39;;;33.13;31.54
36964;BME280;22878;48.616;35.326;2022-07-29T11:27:14;101221.37;;;32.74;31.66
36964;BME280;22878;48.616;35.326;2022-07-29T11:29:56;101222.56;;;32.87;32.01
36964;BME280;22878;48.616;35.326;2022-07-29T11:32:25;101228.12;;;32.76;31.74
36964;BME280;22878;48.616;35.326;2022-07-29T11:35:19;101231.11;;;32.60;31.94
36964;BME280;22878;48.616;35.326;2022-07-29T11:41:22;101220.82;;;32.29;31.89
36964;BME280;22878;48.616;35.326;2022-07-29T11:46:46;101230.89;;;32.55;32.06
36964;BME280;22878;48.616;35.326;2022-07-29T11:49:20;101223.91;;;32.51;32.46
36964;BME280;22878;48.616;35.326;2022-07-29T11:51:55;101220.08;;;32.43;31.91
36964;BME280;22878;48.616;35.326;2022-07-29T11:54:26;101218.62;;;32.21;32.64
36964;BME280;22878;48.616;35.326;2022-07-29T11:56:57;101211.89;;;32.40;32.94
36964;BME280;22878;48.616;35.326;2022-07-29T11:59:24;101214.55;;;32.53;32.70
36964;BME280;22878;48.616;35.326;2022-07-29T12:01:58;101221.31;;;32.52;33.23
36964;BME280;22878;48.616;35.326;2022-07-29T12:04:24;101218.55;;;32.60;32.34
36964;BME280;22878;48.616;35.326;2022-07-29T12:06:53;101214.98;;;32.84;32.68
36964;BME280;22878;48.616;35.326;2022-07-29T12:09:21;101207.03;;;33.11;31.61
36964;BME280;22878;48.616;35.326;2022-07-29T12:14:29;101209.61;;;32.96;32.24
36964;BME280;22878;48.616;35.326;2022-07-29T12:17:00;101209.63;;;33.14;32.14
36964;BME280;22878;48.616;35.326;2022-07-29T12:19:26;101203.84;;;33.16;30.96
36964;BME280;22878;48.616;35.326;2022-07-29T12:21:54;101207.20;;;32.91;32.35
36964;BME280;22878;48.616;35.326;2022-07-29T12:24:22;101209.42;;;33.06;32.07
36964;BME280;22878;48.616;35.326;2022-07-29T12:26:52;101209.44;;;33.13;31.63
36964;BME280;22878;48.616;35.326;2022-07-29T12:29:21;101211.02;;;32.99;31.61
36964;BME280;22878;48.616;35.326;2022-07-29T12:31:52;101200.84;;;32.97;31.56
36964;BME280;22878;48.616;35.326;2022-07-29T12:34:22;101203.22;;;32.81;31.84
36964;BME280;22878;48.616;35.326;2022-07-29T12:36:49;101204.59;;;32.67;31.91
36964;BME280;22878;48.616;35.326;2022-07-29T12:39:16;101202.80;;;32.57;31.96
36964;BME280;22878;48.616;35.326;2022-07-29T12:41:43;101201.97;;;32.50;31.88
36964;BME280;22878;48.616;35.326;2022-07-29T12:44:10;101198.95;;;32.42;31.94
36964;BME280;22878;48.616;35.326;2022-07-29T12:46:37;101202.08;;;32.19;31.90
36964;BME280;22878;48.616;35.326;2022-07-29T12:49:03;101195.06;;;31.73;31.91
36964;BME280;22878;48.616;35.326;2022-07-29T12:51:38;101196.80;;;31.61;32.86
36964;BME280;22878;48.616;35.326;2022-07-29T12:54:11;101197.83;;;31.66;33.50
36964;BME280;22878;48.616;35.326;2022-07-29T12:56:39;101198.08;;;31.74;33.45
36964;BME280;22878;48.616;35.326;2022-07-29T12:59:12;101191.67;;;31.74;32.78
36964;BME280;22878;48.616;35.326;2022-07-29T13:01:46;101198.20;;;31.64;32.81
36964;BME280;22878;48.616;35.326;2022-07-29T13:04:29;101205.48;;;31.49;33.20
36964;BME280;22878;48.616;35.326;2022-07-29T13:07:01;101203.08;;;31.47;33.75
36964;BME280;22878;48.616;35.326;2022-07-29T13:09:44;101196.94;;;31.48;33.56
36964;BME280;22878;48.616;35.326;2022-07-29T13:12:14;101192.62;;;31.61;33.06
36964;BME280;22878;48.616;35.326;2022-07-29T13:14:42;101197.58;;;31.58;33.04
36964;BME280;22878;48.616;35.326;2022-07-29T13:17:19;101195.70;;;31.41;33.05
36964;BME280;22878;48.616;35.326;2022-07-29T13:19:52;101200.98;;;31.33;33.26
36964;BME280;22878;48.616;35.326;2022-07-29T13:22:22;101207.70;;;31.29;33.17
36964;BME280;22878;48.616;35.326;2022-07-29T13:24:54;101213.86;;;31.25;33.28
36964;BME280;22878;48.616;35.326;2022-07-29T13:27:26;101208.59;;;31.12;33.61
36964;BME280;22878;48.616;35.326;2022-07-29T13:29:56;101214.44;;;31.00;33.09
36964;BME280;22878;48.616;35.326;2022-07-29T13:32:24;101213.28;;;30.81;33.49
36964;BME280;22878;48.616;35.326;2022-07-29T13:34:51;101202.60;;;30.86;33.35
36964;BME280;22878;48.616;35.326;2022-07-29T13:37:19;101209.78;;;30.91;33.25
36964;BME280;22878;48.616;35.326;2022-07-29T13:39:45;101208.64;;;30.95;33.31
36964;BME280;22878;48.616;35.326;2022-07-29T13:42:13;101199.73;;;31.03;32.94
36964;BME280;22878;48.616;35.326;2022-07-29T13:47:07;101206.25;;;31.18;33.12
36964;BME280;22878;48.616;35.326;2022-07-29T13:49:34;101202.91;;;31.26;32.28
36964;BME280;22878;48.616;35.326;2022-07-29T13:52:01;101201.05;;;31.16;32.46
36964;BME280;22878;48.616;35.326;2022-07-29T13:56:56;101200.77;;;31.05;32.33
36964;BME280;22878;48.616;35.326;2022-07-29T13:59:23;101204.96;;;31.08;32.42
36964;BME280;22878;48.616;35.326;2022-07-29T14:01:49;101204.77;;;31.07;32.72
36964;BME280;22878;48.616;35.326;2022-07-29T14:04:15;101204.96;;;31.08;32.62
36964;BME280;22878;48.616;35.326;2022-07-29T14:06:44;101196.77;;;31.02;32.72
36964;BME280;22878;48.616;35.326;2022-07-29T14:09:10;101198.88;;;30.92;32.85
36964;BME280;22878;48.616;35.326;2022-07-29T14:11:38;101197.68;;;30.93;33.46